Terminal Aerodrome Forecast
Issued by NWS

Home | Current Version | Previous Version | Text Only | Print | Product List | Glossary Off
Versions: 1 2 3 4 5 6 7 8 9 10 11 12 13 14 15 16 17 18 19 20 21 22 23 24 25 26 27 28 29 30 31

056
FTUS43 KLOT 242050 AAB
TAFORD
TAF AMD
KORD 242050Z 2421/2524 24014G21KT P6SM FEW080 SCT150 OVC250
     FM242200 04013G21KT P6SM SCT060 OVC250
     FM242330 04010KT 6SM HZ FEW010 BKN060
     FM250400 04010KT 3SM -SHRA BR SCT004 OVC007
     FM250700 05010KT 2SM -SHRA BR SCT002 OVC004
      TEMPO 2511/2515 1SM -DZ BR OVC003
     FM251600 08013KT 3SM -RADZ BR OVC004=

USA.gov is the U.S. government's official web portal to all federal, state and local government web resources and services.